sensor_id;sensor_type;location;lat;lon;timestamp;temperature;humidity
20335;DHT22;10325;51.468;5.804;2023-04-24T00:00:25;18.30;59.80
20335;DHT22;10325;51.468;5.804;2023-04-24T00:02:56;18.30;59.80
20335;DHT22;10325;51.468;5.804;2023-04-24T00:05:24;18.30;59.80
20335;DHT22;10325;51.468;5.804;2023-04-24T00:07:54;18.30;59.80
20335;DHT22;10325;51.468;5.804;2023-04-24T00:10:25;18.30;59.80
20335;DHT22;10325;51.468;5.804;2023-04-24T00:12:56;18.30;59.80
20335;DHT22;10325;51.468;5.804;2023-04-24T00:15:40;18.30;59.80
20335;DHT22;10325;51.468;5.804;2023-04-24T00:18:09;18.30;59.80
20335;DHT22;10325;51.468;5.804;2023-04-24T00:20:39;18.30;59.80
20335;DHT22;10325;51.468;5.804;2023-04-24T00:23:10;18.20;59.80
20335;DHT22;10325;51.468;5.804;2023-04-24T00:25:41;18.30;59.90
20335;DHT22;10325;51.468;5.804;2023-04-24T00:28:12;18.30;59.90
20335;DHT22;10325;51.468;5.804;2023-04-24T00:30:44;18.20;59.90
20335;DHT22;10325;51.468;5.804;2023-04-24T00:33:14;18.20;59.90
20335;DHT22;10325;51.468;5.804;2023-04-24T00:35:48;18.30;59.90
20335;DHT22;10325;51.468;5.804;2023-04-24T00:38:19;18.30;60.00
20335;DHT22;10325;51.468;5.804;2023-04-24T00:40:48;18.20;59.90
20335;DHT22;10325;51.468;5.804;2023-04-24T00:43:18;18.20;59.90
20335;DHT22;10325;51.468;5.804;2023-04-24T00:45:49;18.20;59.90
20335;DHT22;10325;51.468;5.804;2023-04-24T00:48:18;18.30;59.90
20335;DHT22;10325;51.468;5.804;2023-04-24T00:50:59;18.20;59.90
20335;DHT22;10325;51.468;5.804;2023-04-24T00:53:30;18.20;59.80
20335;DHT22;10325;51.468;5.804;2023-04-24T00:56:01;18.20;59.90
20335;DHT22;10325;51.468;5.804;2023-04-24T00:58:30;18.20;59.80
20335;DHT22;10325;51.468;5.804;2023-04-24T01:01:02;18.20;59.80
20335;DHT22;10325;51.468;5.804;2023-04-24T01:03:35;18.20;59.80
20335;DHT22;10325;51.468;5.804;2023-04-24T01:06:06;18.20;59.90
20335;DHT22;10325;51.468;5.804;2023-04-24T01:08:39;18.20;59.80
20335;DHT22;10325;51.468;5.804;2023-04-24T01:11:13;18.30;59.90
20335;DHT22;10325;51.468;5.804;2023-04-24T01:13:46;18.20;59.90
20335;DHT22;10325;51.468;5.804;2023-04-24T01:16:18;18.20;59.90
20335;DHT22;10325;51.468;5.804;2023-04-24T01:18:49;18.20;59.80
20335;DHT22;10325;51.468;5.804;2023-04-24T01:21:22;18.20;59.80
20335;DHT22;10325;51.468;5.804;2023-04-24T01:23:55;18.20;59.80
20335;DHT22;10325;51.468;5.804;2023-04-24T01:26:25;18.20;59.80
20335;DHT22;10325;51.468;5.804;2023-04-24T01:28:54;18.20;59.80
20335;DHT22;10325;51.468;5.804;2023-04-24T01:31:24;18.20;59.90
20335;DHT22;10325;51.468;5.804;2023-04-24T01:33:56;18.20;59.80
20335;DHT22;10325;51.468;5.804;2023-04-24T01:36:32;18.20;59.80
20335;DHT22;10325;51.468;5.804;2023-04-24T01:39:00;18.20;59.90
20335;DHT22;10325;51.468;5.804;2023-04-24T01:41:31;18.20;59.80
20335;DHT22;10325;51.468;5.804;2023-04-24T01:44:01;18.20;59.80
20335;DHT22;10325;51.468;5.804;2023-04-24T01:46:30;18.20;59.80
20335;DHT22;10325;51.468;5.804;2023-04-24T01:49:02;18.20;59.80
20335;DHT22;10325;51.468;5.804;2023-04-24T01:51:33;18.20;59.80
20335;DHT22;10325;51.468;5.804;2023-04-24T01:54:03;18.20;59.80
20335;DHT22;10325;51.468;5.804;2023-04-24T01:56:35;18.20;59.80
20335;DHT22;10325;51.468;5.804;2023-04-24T01:59:11;18.20;59.80
20335;DHT22;10325;51.468;5.804;2023-04-24T02:01:45;18.20;59.80
20335;DHT22;10325;51.468;5.804;2023-04-24T02:04:14;18.20;59.90
20335;DHT22;10325;51.468;5.804;2023-04-24T02:06:47;18.20;59.90
20335;DHT22;10325;51.468;5.804;2023-04-24T02:09:18;18.20;59.90
20335;DHT22;10325;51.468;5.804;2023-04-24T02:11:47;18.20;59.80
20335;DHT22;10325;51.468;5.804;2023-04-24T02:14:16;18.20;59.90
20335;DHT22;10325;51.468;5.804;2023-04-24T02:16:44;18.20;59.80
20335;DHT22;10325;51.468;5.804;2023-04-24T02:19:15;18.20;59.80
20335;DHT22;10325;51.468;5.804;2023-04-24T02:21:47;18.20;59.80
20335;DHT22;10325;51.468;5.804;2023-04-24T02:24:17;18.20;59.90
20335;DHT22;10325;51.468;5.804;2023-04-24T02:26:45;18.20;59.90
20335;DHT22;10325;51.468;5.804;2023-04-24T02:29:15;18.20;59.90
20335;DHT22;10325;51.468;5.804;2023-04-24T02:31:47;18.10;59.80
20335;DHT22;10325;51.468;5.804;2023-04-24T02:34:19;18.10;59.80
20335;DHT22;10325;51.468;5.804;2023-04-24T02:36:49;18.10;59.80
20335;DHT22;10325;51.468;5.804;2023-04-24T02:39:18;18.10;59.80
20335;DHT22;10325;51.468;5.804;2023-04-24T02:41:53;18.20;59.80
20335;DHT22;10325;51.468;5.804;2023-04-24T02:44:24;18.20;59.90
20335;DHT22;10325;51.468;5.804;2023-04-24T02:46:54;18.10;59.80
20335;DHT22;10325;51.468;5.804;2023-04-24T02:49:25;18.10;59.80
20335;DHT22;10325;51.468;5.804;2023-04-24T02:51:57;18.10;59.80
20335;DHT22;10325;51.468;5.804;2023-04-24T02:54:27;18.10;59.80
20335;DHT22;10325;51.468;5.804;2023-04-24T02:56:56;18.20;59.90
20335;DHT22;10325;51.468;5.804;2023-04-24T02:59:27;18.10;59.80
20335;DHT22;10325;51.468;5.804;2023-04-24T03:02:01;18.10;59.80
20335;DHT22;10325;51.468;5.804;2023-04-24T03:04:32;18.10;59.90
20335;DHT22;10325;51.468;5.804;2023-04-24T03:07:03;18.10;59.80
20335;DHT22;10325;51.468;5.804;2023-04-24T03:09:32;18.10;59.90
20335;DHT22;10325;51.468;5.804;2023-04-24T03:12:01;18.10;59.90
20335;DHT22;10325;51.468;5.804;2023-04-24T03:14:28;18.10;59.90
20335;DHT22;10325;51.468;5.804;2023-04-24T03:16:58;18.10;59.90
20335;DHT22;10325;51.468;5.804;2023-04-24T03:19:32;18.10;59.90
20335;DHT22;10325;51.468;5.804;2023-04-24T03:22:03;18.10;59.90
20335;DHT22;10325;51.468;5.804;2023-04-24T03:24:34;18.10;59.90
20335;DHT22;10325;51.468;5.804;2023-04-24T03:27:05;18.10;59.90
20335;DHT22;10325;51.468;5.804;2023-04-24T03:29:34;18.10;60.10
20335;DHT22;10325;51.468;5.804;2023-04-24T03:32:05;18.10;59.90
20335;DHT22;10325;51.468;5.804;2023-04-24T03:34:36;18.10;59.90
20335;DHT22;10325;51.468;5.804;2023-04-24T03:37:05;18.10;59.90
20335;DHT22;10325;51.468;5.804;2023-04-24T03:39:37;18.10;59.90
20335;DHT22;10325;51.468;5.804;2023-04-24T03:42:05;18.10;59.90
20335;DHT22;10325;51.468;5.804;2023-04-24T03:44:36;18.10;59.90
20335;DHT22;10325;51.468;5.804;2023-04-24T03:47:03;18.10;60.00
20335;DHT22;10325;51.468;5.804;2023-04-24T03:49:36;18.10;60.00
20335;DHT22;10325;51.468;5.804;2023-04-24T03:52:08;18.10;60.10
20335;DHT22;10325;51.468;5.804;2023-04-24T03:54:38;18.10;60.10
20335;DHT22;10325;51.468;5.804;2023-04-24T03:57:06;18.10;60.10
20335;DHT22;10325;51.468;5.804;2023-04-24T03:59:35;18.10;60.10
20335;DHT22;10325;51.468;5.804;2023-04-24T04:02:03;18.10;60.10
20335;DHT22;10325;51.468;5.804;2023-04-24T04:04:37;18.10;60.10
20335;DHT22;10325;51.468;5.804;2023-04-24T04:07:09;18.10;60.10
20335;DHT22;10325;51.468;5.804;2023-04-24T04:09:37;18.10;60.10
20335;DHT22;10325;51.468;5.804;2023-04-24T04:12:08;18.10;60.20
20335;DHT22;10325;51.468;5.804;2023-04-24T04:14:39;18.10;60.10
20335;DHT22;10325;51.468;5.804;2023-04-24T04:17:10;18.00;60.10
20335;DHT22;10325;51.468;5.804;2023-04-24T04:19:41;18.10;60.20
20335;DHT22;10325;51.468;5.804;2023-04-24T04:22:12;18.10;60.10
20335;DHT22;10325;51.468;5.804;2023-04-24T04:24:44;18.10;60.10
20335;DHT22;10325;51.468;5.804;2023-04-24T04:27:24;18.10;60.10
20335;DHT22;10325;51.468;5.804;2023-04-24T04:29:56;18.10;60.10
20335;DHT22;10325;51.468;5.804;2023-04-24T04:32:26;18.10;60.10
20335;DHT22;10325;51.468;5.804;2023-04-24T04:34:57;18.10;60.10
20335;DHT22;10325;51.468;5.804;2023-04-24T04:38:06;18.10;60.10
20335;DHT22;10325;51.468;5.804;2023-04-24T04:40:38;18.10;60.10
20335;DHT22;10325;51.468;5.804;2023-04-24T04:43:23;18.00;60.10
20335;DHT22;10325;51.468;5.804;2023-04-24T04:46:16;18.00;60.10
20335;DHT22;10325;51.468;5.804;2023-04-24T04:48:54;18.10;60.10
20335;DHT22;10325;51.468;5.804;2023-04-24T04:51:28;18.00;60.00
20335;DHT22;10325;51.468;5.804;2023-04-24T04:54:00;18.00;60.00
20335;DHT22;10325;51.468;5.804;2023-04-24T04:56:44;18.00;59.90
20335;DHT22;10325;51.468;5.804;2023-04-24T04:59:16;18.00;59.90
20335;DHT22;10325;51.468;5.804;2023-04-24T05:01:45;18.00;60.50
20335;DHT22;10325;51.468;5.804;2023-04-24T05:04:15;18.00;59.80
20335;DHT22;10325;51.468;5.804;2023-04-24T05:06:46;18.00;59.70
20335;DHT22;10325;51.468;5.804;2023-04-24T05:09:20;18.00;59.70
20335;DHT22;10325;51.468;5.804;2023-04-24T05:11:53;18.00;59.60
20335;DHT22;10325;51.468;5.804;2023-04-24T05:14:22;18.00;59.60
20335;DHT22;10325;51.468;5.804;2023-04-24T05:16:50;18.00;59.60
20335;DHT22;10325;51.468;5.804;2023-04-24T05:19:22;18.00;59.50
20335;DHT22;10325;51.468;5.804;2023-04-24T05:21:54;18.00;59.50
20335;DHT22;10325;51.468;5.804;2023-04-24T05:24:23;18.00;59.60
20335;DHT22;10325;51.468;5.804;2023-04-24T05:26:55;18.00;59.60
20335;DHT22;10325;51.468;5.804;2023-04-24T05:29:25;18.00;59.70
20335;DHT22;10325;51.468;5.804;2023-04-24T05:31:57;18.00;59.70
20335;DHT22;10325;51.468;5.804;2023-04-24T05:34:28;18.00;59.70
20335;DHT22;10325;51.468;5.804;2023-04-24T05:36:57;18.00;59.80
20335;DHT22;10325;51.468;5.804;2023-04-24T05:39:26;18.00;59.80
20335;DHT22;10325;51.468;5.804;2023-04-24T05:41:56;18.00;59.90
20335;DHT22;10325;51.468;5.804;2023-04-24T05:44:27;18.00;59.80
20335;DHT22;10325;51.468;5.804;2023-04-24T05:46:56;18.00;59.80
20335;DHT22;10325;51.468;5.804;2023-04-24T05:49:29;18.00;59.80
20335;DHT22;10325;51.468;5.804;2023-04-24T05:51:58;18.00;59.80
20335;DHT22;10325;51.468;5.804;2023-04-24T05:54:36;18.00;59.70
20335;DHT22;10325;51.468;5.804;2023-04-24T05:57:05;18.00;59.70
20335;DHT22;10325;51.468;5.804;2023-04-24T05:59:37;17.90;59.60
20335;DHT22;10325;51.468;5.804;2023-04-24T06:02:13;18.00;59.60
20335;DHT22;10325;51.468;5.804;2023-04-24T06:04:42;18.00;59.60
20335;DHT22;10325;51.468;5.804;2023-04-24T06:07:13;17.90;59.50
20335;DHT22;10325;51.468;5.804;2023-04-24T06:09:43;17.90;59.50
20335;DHT22;10325;51.468;5.804;2023-04-24T06:12:34;17.90;59.40
20335;DHT22;10325;51.468;5.804;2023-04-24T06:15:14;17.90;59.40
20335;DHT22;10325;51.468;5.804;2023-04-24T06:17:43;17.90;59.40
20335;DHT22;10325;51.468;5.804;2023-04-24T06:20:11;17.90;59.40
20335;DHT22;10325;51.468;5.804;2023-04-24T06:22:45;18.00;59.50
20335;DHT22;10325;51.468;5.804;2023-04-24T06:25:16;17.90;59.50
20335;DHT22;10325;51.468;5.804;2023-04-24T06:27:43;17.90;59.50
20335;DHT22;10325;51.468;5.804;2023-04-24T06:30:10;17.90;59.50
20335;DHT22;10325;51.468;5.804;2023-04-24T06:32:42;17.90;59.40
20335;DHT22;10325;51.468;5.804;2023-04-24T06:35:14;17.90;59.40
20335;DHT22;10325;51.468;5.804;2023-04-24T06:37:46;17.90;59.40
20335;DHT22;10325;51.468;5.804;2023-04-24T06:40:17;17.90;59.30
20335;DHT22;10325;51.468;5.804;2023-04-24T06:42:49;17.90;59.30
20335;DHT22;10325;51.468;5.804;2023-04-24T06:45:21;17.90;59.30
20335;DHT22;10325;51.468;5.804;2023-04-24T06:47:56;17.90;59.30
20335;DHT22;10325;51.468;5.804;2023-04-24T06:50:26;17.90;59.40
20335;DHT22;10325;51.468;5.804;2023-04-24T06:52:58;17.90;59.30
20335;DHT22;10325;51.468;5.804;2023-04-24T06:55:28;17.90;59.30
20335;DHT22;10325;51.468;5.804;2023-04-24T06:58:06;17.90;59.30
20335;DHT22;10325;51.468;5.804;2023-04-24T07:00:34;17.90;59.50
20335;DHT22;10325;51.468;5.804;2023-04-24T07:03:03;17.90;59.90
20335;DHT22;10325;51.468;5.804;2023-04-24T07:05:39;17.90;60.80
20335;DHT22;10325;51.468;5.804;2023-04-24T07:08:10;18.00;61.00
20335;DHT22;10325;51.468;5.804;2023-04-24T07:10:41;18.00;61.50
20335;DHT22;10325;51.468;5.804;2023-04-24T07:13:17;18.10;61.70
20335;DHT22;10325;51.468;5.804;2023-04-24T07:15:47;18.10;62.00
20335;DHT22;10325;51.468;5.804;2023-04-24T07:18:20;18.20;62.20
20335;DHT22;10325;51.468;5.804;2023-04-24T07:21:04;18.30;62.30
20335;DHT22;10325;51.468;5.804;2023-04-24T07:23:35;18.30;62.30
20335;DHT22;10325;51.468;5.804;2023-04-24T07:26:06;18.40;62.30
20335;DHT22;10325;51.468;5.804;2023-04-24T07:28:35;18.50;61.90
20335;DHT22;10325;51.468;5.804;2023-04-24T07:31:07;18.60;62.40
20335;DHT22;10325;51.468;5.804;2023-04-24T07:33:40;18.60;61.10
20335;DHT22;10325;51.468;5.804;2023-04-24T07:36:08;18.80;61.10
20335;DHT22;10325;51.468;5.804;2023-04-24T07:38:55;18.80;61.50
20335;DHT22;10325;51.468;5.804;2023-04-24T07:41:27;18.90;60.70
20335;DHT22;10325;51.468;5.804;2023-04-24T07:43:59;19.00;60.20
20335;DHT22;10325;51.468;5.804;2023-04-24T07:46:30;19.00;59.90
20335;DHT22;10325;51.468;5.804;2023-04-24T07:49:05;19.10;59.30
20335;DHT22;10325;51.468;5.804;2023-04-24T07:51:40;19.10;59.10
20335;DHT22;10325;51.468;5.804;2023-04-24T07:54:11;19.20;58.50
20335;DHT22;10325;51.468;5.804;2023-04-24T07:56:43;19.30;58.60
20335;DHT22;10325;51.468;5.804;2023-04-24T07:59:21;19.30;58.20
20335;DHT22;10325;51.468;5.804;2023-04-24T08:01:53;19.40;58.10
20335;DHT22;10325;51.468;5.804;2023-04-24T08:04:23;19.40;57.70
20335;DHT22;10325;51.468;5.804;2023-04-24T08:06:52;19.40;57.80
20335;DHT22;10325;51.468;5.804;2023-04-24T08:09:23;19.50;57.50
20335;DHT22;10325;51.468;5.804;2023-04-24T08:11:54;19.50;57.10
20335;DHT22;10325;51.468;5.804;2023-04-24T08:14:24;19.40;56.60
20335;DHT22;10325;51.468;5.804;2023-04-24T08:16:56;19.40;56.80
20335;DHT22;10325;51.468;5.804;2023-04-24T08:19:26;19.30;56.80
20335;DHT22;10325;51.468;5.804;2023-04-24T08:21:59;19.20;56.70
20335;DHT22;10325;51.468;5.804;2023-04-24T08:24:29;19.20;56.60
20335;DHT22;10325;51.468;5.804;2023-04-24T08:27:01;19.20;56.70
20335;DHT22;10325;51.468;5.804;2023-04-24T08:29:33;19.20;56.90
20335;DHT22;10325;51.468;5.804;2023-04-24T08:32:07;19.30;57.20
20335;DHT22;10325;51.468;5.804;2023-04-24T08:34:38;19.40;57.20
20335;DHT22;10325;51.468;5.804;2023-04-24T08:37:07;19.40;57.60
20335;DHT22;10325;51.468;5.804;2023-04-24T08:39:37;19.50;57.30
20335;DHT22;10325;51.468;5.804;2023-04-24T08:42:12;19.50;57.40
20335;DHT22;10325;51.468;5.804;2023-04-24T08:44:44;19.60;57.00
20335;DHT22;10325;51.468;5.804;2023-04-24T08:47:17;19.60;57.30
20335;DHT22;10325;51.468;5.804;2023-04-24T08:49:50;19.70;57.80
20335;DHT22;10325;51.468;5.804;2023-04-24T08:52:19;19.80;56.70
20335;DHT22;10325;51.468;5.804;2023-04-24T08:54:52;19.80;57.30
20335;DHT22;10325;51.468;5.804;2023-04-24T08:57:29;19.90;57.00
20335;DHT22;10325;51.468;5.804;2023-04-24T09:00:02;19.90;57.10
20335;DHT22;10325;51.468;5.804;2023-04-24T09:02:32;19.90;56.90
20335;DHT22;10325;51.468;5.804;2023-04-24T09:05:08;20.00;56.10
20335;DHT22;10325;51.468;5.804;2023-04-24T09:07:42;20.00;56.50
20335;DHT22;10325;51.468;5.804;2023-04-24T09:10:15;20.10;56.60
20335;DHT22;10325;51.468;5.804;2023-04-24T09:12:47;20.10;56.80
20335;DHT22;10325;51.468;5.804;2023-04-24T09:15:22;20.10;56.70
20335;DHT22;10325;51.468;5.804;2023-04-24T09:17:52;20.10;56.40
20335;DHT22;10325;51.468;5.804;2023-04-24T09:20:25;20.20;56.30
20335;DHT22;10325;51.468;5.804;2023-04-24T09:22:59;20.20;55.90
20335;DHT22;10325;51.468;5.804;2023-04-24T09:25:38;20.20;55.80
20335;DHT22;10325;51.468;5.804;2023-04-24T09:28:11;20.20;56.10
20335;DHT22;10325;51.468;5.804;2023-04-24T09:30:42;20.20;56.40
20335;DHT22;10325;51.468;5.804;2023-04-24T09:33:15;20.20;56.40
20335;DHT22;10325;51.468;5.804;2023-04-24T09:35:52;20.20;56.20
20335;DHT22;10325;51.468;5.804;2023-04-24T09:38:36;20.30;55.90
20335;DHT22;10325;51.468;5.804;2023-04-24T09:41:14;20.30;55.70
20335;DHT22;10325;51.468;5.804;2023-04-24T09:43:43;20.40;56.20
20335;DHT22;10325;51.468;5.804;2023-04-24T09:46:18;20.30;55.60
20335;DHT22;10325;51.468;5.804;2023-04-24T09:48:49;20.40;56.20
20335;DHT22;10325;51.468;5.804;2023-04-24T09:51:33;20.40;56.20
20335;DHT22;10325;51.468;5.804;2023-04-24T09:54:22;20.40;56.40
20335;DHT22;10325;51.468;5.804;2023-04-24T09:56:51;20.40;55.80
20335;DHT22;10325;51.468;5.804;2023-04-24T09:59:21;20.40;55.00
20335;DHT22;10325;51.468;5.804;2023-04-24T10:01:53;20.30;56.40
20335;DHT22;10325;51.468;5.804;2023-04-24T10:04:21;20.20;57.20
20335;DHT22;10325;51.468;5.804;2023-04-24T10:06:56;20.10;57.60
20335;DHT22;10325;51.468;5.804;2023-04-24T10:09:28;20.00;58.00
20335;DHT22;10325;51.468;5.804;2023-04-24T10:11:59;19.90;58.20
20335;DHT22;10325;51.468;5.804;2023-04-24T10:14:32;19.80;58.70
20335;DHT22;10325;51.468;5.804;2023-04-24T10:17:06;19.70;59.10
20335;DHT22;10325;51.468;5.804;2023-04-24T10:19:39;19.70;59.50
20335;DHT22;10325;51.468;5.804;2023-04-24T10:22:09;19.60;59.80
20335;DHT22;10325;51.468;5.804;2023-04-24T10:24:41;19.50;59.90
20335;DHT22;10325;51.468;5.804;2023-04-24T10:27:14;19.50;60.10
20335;DHT22;10325;51.468;5.804;2023-04-24T10:29:47;19.40;60.20
20335;DHT22;10325;51.468;5.804;2023-04-24T10:32:21;19.40;60.30
20335;DHT22;10325;51.468;5.804;2023-04-24T10:34:52;19.50;59.80
20335;DHT22;10325;51.468;5.804;2023-04-24T10:37:50;19.50;59.60
20335;DHT22;10325;51.468;5.804;2023-04-24T10:40:27;19.60;59.10
20335;DHT22;10325;51.468;5.804;2023-04-24T10:43:08;19.70;58.90
20335;DHT22;10325;51.468;5.804;2023-04-24T10:46:06;19.70;58.40
20335;DHT22;10325;51.468;5.804;2023-04-24T10:48:55;19.80;58.20
20335;DHT22;10325;51.468;5.804;2023-04-24T10:54:28;19.90;58.30
20335;DHT22;10325;51.468;5.804;2023-04-24T10:57:26;20.00;57.70
20335;DHT22;10325;51.468;5.804;2023-04-24T11:00:19;20.10;57.90
20335;DHT22;10325;51.468;5.804;2023-04-24T11:02:53;20.20;58.20
20335;DHT22;10325;51.468;5.804;2023-04-24T11:08:40;20.30;57.30
20335;DHT22;10325;51.468;5.804;2023-04-24T11:11:18;20.30;56.80
20335;DHT22;10325;51.468;5.804;2023-04-24T11:16:45;20.50;56.20
20335;DHT22;10325;51.468;5.804;2023-04-24T11:19:18;20.50;55.90
20335;DHT22;10325;51.468;5.804;2023-04-24T11:22:03;20.50;55.80
20335;DHT22;10325;51.468;5.804;2023-04-24T11:24:50;20.60;56.10
20335;DHT22;10325;51.468;5.804;2023-04-24T11:27:25;20.60;56.10
20335;DHT22;10325;51.468;5.804;2023-04-24T11:30:13;20.60;55.60
20335;DHT22;10325;51.468;5.804;2023-04-24T11:32:51;20.60;55.60
20335;DHT22;10325;51.468;5.804;2023-04-24T11:35:24;20.70;55.80
20335;DHT22;10325;51.468;5.804;2023-04-24T11:37:59;20.70;55.70
20335;DHT22;10325;51.468;5.804;2023-04-24T11:40:34;20.80;55.50
20335;DHT22;10325;51.468;5.804;2023-04-24T11:43:07;20.80;55.00
20335;DHT22;10325;51.468;5.804;2023-04-24T11:45:49;20.80;55.30
20335;DHT22;10325;51.468;5.804;2023-04-24T11:48:22;20.80;54.90
20335;DHT22;10325;51.468;5.804;2023-04-24T11:50:52;20.80;55.20
20335;DHT22;10325;51.468;5.804;2023-04-24T11:53:26;20.80;55.30
20335;DHT22;10325;51.468;5.804;2023-04-24T11:55:57;20.80;55.20
20335;DHT22;10325;51.468;5.804;2023-04-24T11:58:35;20.80;55.50
20335;DHT22;10325;51.468;5.804;2023-04-24T12:01:12;20.90;55.40
20335;DHT22;10325;51.468;5.804;2023-04-24T12:03:42;20.90;55.00
20335;DHT22;10325;51.468;5.804;2023-04-24T12:06:18;20.90;55.20
20335;DHT22;10325;51.468;5.804;2023-04-24T12:08:52;20.90;55.10
20335;DHT22;10325;51.468;5.804;2023-04-24T12:11:20;20.90;55.20
20335;DHT22;10325;51.468;5.804;2023-04-24T12:13:50;21.00;55.80
20335;DHT22;10325;51.468;5.804;2023-04-24T12:16:22;21.00;55.50
20335;DHT22;10325;51.468;5.804;2023-04-24T12:18:53;20.90;55.20
20335;DHT22;10325;51.468;5.804;2023-04-24T12:21:24;21.00;55.90
20335;DHT22;10325;51.468;5.804;2023-04-24T12:23:59;21.00;55.90
20335;DHT22;10325;51.468;5.804;2023-04-24T12:26:29;21.00;55.60
20335;DHT22;10325;51.468;5.804;2023-04-24T12:29:08;21.00;55.00
20335;DHT22;10325;51.468;5.804;2023-04-24T12:31:41;21.00;55.20
20335;DHT22;10325;51.468;5.804;2023-04-24T12:34:21;21.10;55.20
20335;DHT22;10325;51.468;5.804;2023-04-24T12:36:49;21.10;55.00
20335;DHT22;10325;51.468;5.804;2023-04-24T12:39:21;21.10;55.00
20335;DHT22;10325;51.468;5.804;2023-04-24T12:41:59;21.10;55.00
20335;DHT22;10325;51.468;5.804;2023-04-24T12:44:43;21.10;54.70
20335;DHT22;10325;51.468;5.804;2023-04-24T12:47:18;21.10;55.00
20335;DHT22;10325;51.468;5.804;2023-04-24T12:49:49;21.10;55.20
20335;DHT22;10325;51.468;5.804;2023-04-24T12:52:19;21.20;54.60
20335;DHT22;10325;51.468;5.804;2023-04-24T12:54:50;21.20;55.00
20335;DHT22;10325;51.468;5.804;2023-04-24T12:57:19;21.20;54.60
20335;DHT22;10325;51.468;5.804;2023-04-24T12:59:47;21.20;54.80
20335;DHT22;10325;51.468;5.804;2023-04-24T13:02:18;21.30;54.80
20335;DHT22;10325;51.468;5.804;2023-04-24T13:04:52;21.30;54.70
20335;DHT22;10325;51.468;5.804;2023-04-24T13:07:23;21.30;54.50
20335;DHT22;10325;51.468;5.804;2023-04-24T13:09:59;21.40;54.30
20335;DHT22;10325;51.468;5.804;2023-04-24T13:12:29;21.30;54.70
20335;DHT22;10325;51.468;5.804;2023-04-24T13:14:59;21.40;54.30
20335;DHT22;10325;51.468;5.804;2023-04-24T13:17:30;21.40;54.10
20335;DHT22;10325;51.468;5.804;2023-04-24T13:19:58;21.40;54.10
20335;DHT22;10325;51.468;5.804;2023-04-24T13:22:28;21.40;54.20
20335;DHT22;10325;51.468;5.804;2023-04-24T13:24:59;21.40;54.00
20335;DHT22;10325;51.468;5.804;2023-04-24T13:27:32;21.40;54.40
20335;DHT22;10325;51.468;5.804;2023-04-24T13:30:03;21.50;54.70
20335;DHT22;10325;51.468;5.804;2023-04-24T13:32:35;21.50;54.00
20335;DHT22;10325;51.468;5.804;2023-04-24T13:35:15;21.50;54.00
20335;DHT22;10325;51.468;5.804;2023-04-24T13:37:49;21.50;53.90
20335;DHT22;10325;51.468;5.804;2023-04-24T13:40:16;21.50;53.90
20335;DHT22;10325;51.468;5.804;2023-04-24T13:42:46;21.50;54.00
20335;DHT22;10325;51.468;5.804;2023-04-24T13:45:17;21.50;53.90
20335;DHT22;10325;51.468;5.804;2023-04-24T13:47:52;21.50;53.90
20335;DHT22;10325;51.468;5.804;2023-04-24T13:50:24;21.40;53.70
20335;DHT22;10325;51.468;5.804;2023-04-24T13:52:54;21.40;54.10
20335;DHT22;10325;51.468;5.804;2023-04-24T13:55:30;21.50;54.10
20335;DHT22;10325;51.468;5.804;2023-04-24T13:58:03;21.50;54.20
20335;DHT22;10325;51.468;5.804;2023-04-24T14:00:35;21.40;54.50
20335;DHT22;10325;51.468;5.804;2023-04-24T14:03:05;21.20;55.00
20335;DHT22;10325;51.468;5.804;2023-04-24T14:05:35;21.20;55.20
20335;DHT22;10325;51.468;5.804;2023-04-24T14:08:04;21.20;55.10
20335;DHT22;10325;51.468;5.804;2023-04-24T14:10:38;21.30;55.40
20335;DHT22;10325;51.468;5.804;2023-04-24T14:13:21;21.30;54.80
20335;DHT22;10325;51.468;5.804;2023-04-24T14:15:57;21.30;54.80
20335;DHT22;10325;51.468;5.804;2023-04-24T14:18:27;21.30;54.50
20335;DHT22;10325;51.468;5.804;2023-04-24T14:21:06;21.30;54.30
20335;DHT22;10325;51.468;5.804;2023-04-24T14:23:34;21.40;54.20
20335;DHT22;10325;51.468;5.804;2023-04-24T14:26:05;21.40;54.20
20335;DHT22;10325;51.468;5.804;2023-04-24T14:28:35;21.40;54.60
20335;DHT22;10325;51.468;5.804;2023-04-24T14:31:07;21.50;54.50
20335;DHT22;10325;51.468;5.804;2023-04-24T14:33:38;21.50;54.20
20335;DHT22;10325;51.468;5.804;2023-04-24T14:36:09;21.50;54.40
20335;DHT22;10325;51.468;5.804;2023-04-24T14:38:36;21.60;54.30
20335;DHT22;10325;51.468;5.804;2023-04-24T14:41:06;21.60;54.00
20335;DHT22;10325;51.468;5.804;2023-04-24T14:43:42;21.60;53.70
20335;DHT22;10325;51.468;5.804;2023-04-24T14:46:17;21.60;53.80
20335;DHT22;10325;51.468;5.804;2023-04-24T14:48:47;21.60;53.70
20335;DHT22;10325;51.468;5.804;2023-04-24T14:51:18;21.60;53.70
20335;DHT22;10325;51.468;5.804;2023-04-24T14:53:47;21.60;53.90
20335;DHT22;10325;51.468;5.804;2023-04-24T14:56:17;21.60;53.90
20335;DHT22;10325;51.468;5.804;2023-04-24T14:58:53;21.60;54.20
20335;DHT22;10325;51.468;5.804;2023-04-24T15:01:23;21.60;54.00
20335;DHT22;10325;51.468;5.804;2023-04-24T15:04:06;21.60;54.30
20335;DHT22;10325;51.468;5.804;2023-04-24T15:06:37;21.60;53.90
20335;DHT22;10325;51.468;5.804;2023-04-24T15:09:07;21.60;54.40
20335;DHT22;10325;51.468;5.804;2023-04-24T15:11:37;21.60;54.30
20335;DHT22;10325;51.468;5.804;2023-04-24T15:14:06;21.60;54.20
20335;DHT22;10325;51.468;5.804;2023-04-24T15:16:39;21.70;54.20
20335;DHT22;10325;51.468;5.804;2023-04-24T15:19:08;21.70;54.50
20335;DHT22;10325;51.468;5.804;2023-04-24T15:21:39;21.70;54.10
20335;DHT22;10325;51.468;5.804;2023-04-24T15:24:13;21.70;54.20
20335;DHT22;10325;51.468;5.804;2023-04-24T15:26:41;21.70;54.20
20335;DHT22;10325;51.468;5.804;2023-04-24T15:29:13;21.70;54.30
20335;DHT22;10325;51.468;5.804;2023-04-24T15:31:43;21.70;54.10
20335;DHT22;10325;51.468;5.804;2023-04-24T15:34:15;21.70;54.00
20335;DHT22;10325;51.468;5.804;2023-04-24T15:36:44;21.70;53.90
20335;DHT22;10325;51.468;5.804;2023-04-24T15:39:15;21.70;53.70
20335;DHT22;10325;51.468;5.804;2023-04-24T15:41:45;21.70;53.40
20335;DHT22;10325;51.468;5.804;2023-04-24T15:44:13;21.70;53.70
20335;DHT22;10325;51.468;5.804;2023-04-24T15:46:44;21.70;53.60
20335;DHT22;10325;51.468;5.804;2023-04-24T15:49:13;21.70;53.60
20335;DHT22;10325;51.468;5.804;2023-04-24T15:51:44;21.70;53.30
20335;DHT22;10325;51.468;5.804;2023-04-24T15:54:12;21.60;53.50
20335;DHT22;10325;51.468;5.804;2023-04-24T15:56:42;21.60;53.60
20335;DHT22;10325;51.468;5.804;2023-04-24T15:59:14;21.60;53.80
20335;DHT22;10325;51.468;5.804;2023-04-24T16:01:43;21.40;54.90
20335;DHT22;10325;51.468;5.804;2023-04-24T16:04:14;21.10;55.80
20335;DHT22;10325;51.468;5.804;2023-04-24T16:06:45;21.00;55.90
20335;DHT22;10325;51.468;5.804;2023-04-24T16:09:13;20.80;56.20
20335;DHT22;10325;51.468;5.804;2023-04-24T16:11:46;20.60;57.20